Time;durP1;ratioP1;P1;durP2;ratioP2;P2;SDS_P1;SDS_P2;PMS_P1;PMS_P2;Temp;Humidity;BMP_temperature;BMP_pressure;BME280_temperature;BME280_humidity;BME280_pressure;Samples;Min_cycle;Max_cycle;Signal;HPM_P1;HPM_P2
2023/02/14 00:02:16;;;;;;;60.40;31.73;;;1.80;99.90;;;;;;5046104;28;20641;-49
2023/02/14 00:04:45;;;;;;;66.83;34.53;;;1.80;99.90;;;;;;5049662;28;20227;-49
2023/02/14 00:07:13;;;;;;;56.53;32.67;;;1.90;99.90;;;;;;5057861;28;20198;-50
2023/02/14 00:09:40;;;;;;;59.70;33.47;;;1.90;99.90;;;;;;5060587;28;20208;-50
2023/02/14 00:12:07;;;;;;;57.87;32.23;;;1.90;99.90;;;;;;5050702;28;20203;-49
2023/02/14 00:17:20;;;;;;;57.83;31.30;;;2.00;99.90;;;;;;5051787;28;20425;-50
2023/02/14 00:19:47;;;;;;;62.00;30.80;;;1.90;99.90;;;;;;5053639;28;20203;-49
2023/02/14 00:22:14;;;;;;;54.00;28.40;;;1.90;99.90;;;;;;5060288;28;20199;-50
2023/02/14 00:24:41;;;;;;;61.40;31.23;;;1.90;99.90;;;;;;5059110;28;20705;-50
2023/02/14 00:27:08;;;;;;;57.67;30.03;;;1.90;99.90;;;;;;5052254;28;20211;-50
2023/02/14 00:29:35;;;;;;;61.90;31.53;;;1.90;99.90;;;;;;5052845;28;20199;-49
2023/02/14 00:32:02;;;;;;;49.80;27.10;;;1.90;99.90;;;;;;5064116;28;20260;-49
2023/02/14 00:34:32;;;;;;;65.20;31.47;;;1.90;99.90;;;;;;5058907;28;20750;-49
2023/02/14 00:36:59;;;;;;;62.70;31.27;;;1.90;99.90;;;;;;5053111;28;20202;-50
2023/02/14 00:39:26;;;;;;;61.87;30.43;;;1.90;99.90;;;;;;5044431;28;20277;-49
2023/02/14 00:41:53;;;;;;;53.10;30.00;;;1.90;99.90;;;;;;5068188;28;20257;-49
2023/02/14 00:44:20;;;;;;;73.73;34.50;;;2.00;99.90;;;;;;5056454;28;20276;-49
2023/02/14 00:46:47;;;;;;;84.27;35.10;;;2.00;99.90;;;;;;5053518;28;20262;-48
2023/02/14 00:49:14;;;;;;;79.60;32.53;;;2.00;99.90;;;;;;5053104;28;20199;-50
2023/02/14 00:51:42;;;;;;;81.73;37.00;;;2.00;99.90;;;;;;5059313;28;20204;-49
2023/02/14 00:54:09;;;;;;;88.93;36.67;;;2.00;99.90;;;;;;5058259;28;20224;-49
2023/02/14 00:56:36;;;;;;;78.77;35.67;;;2.00;99.90;;;;;;5053135;28;20207;-49
2023/02/14 00:59:04;;;;;;;82.63;35.10;;;1.90;99.90;;;;;;5059798;28;20249;-49
2023/02/14 01:01:31;;;;;;;78.07;35.40;;;1.90;99.90;;;;;;5052571;28;20750;-49
2023/02/14 01:03:58;;;;;;;87.53;35.83;;;1.90;99.90;;;;;;5059676;28;20651;-49
2023/02/14 01:06:25;;;;;;;82.07;34.87;;;1.90;99.90;;;;;;5056484;28;20234;-49
2023/02/14 01:08:53;;;;;;;129.97;39.27;;;1.90;99.90;;;;;;5060315;28;20208;-49
2023/02/14 01:11:22;;;;;;;85.93;37.27;;;1.80;99.90;;;;;;5054289;28;20272;-49
2023/02/14 01:13:50;;;;;;;83.23;35.83;;;1.80;99.90;;;;;;5051220;28;20644;-49
2023/02/14 01:16:19;;;;;;;80.93;34.37;;;1.80;99.90;;;;;;5051238;28;20666;-49
2023/02/14 01:18:47;;;;;;;96.47;37.17;;;1.70;99.90;;;;;;5056846;28;20223;-49
2023/02/14 01:21:17;;;;;;;93.20;36.87;;;1.70;99.90;;;;;;5062320;28;20699;-49
2023/02/14 01:23:45;;;;;;;85.10;35.67;;;1.80;99.90;;;;;;5053616;28;20632;-49
2023/02/14 01:26:15;;;;;;;105.00;38.27;;;1.80;99.90;;;;;;5064317;28;20617;-49
2023/02/14 01:28:42;;;;;;;84.90;34.33;;;1.80;99.90;;;;;;5051072;28;20199;-48
2023/02/14 01:31:12;;;;;;;81.43;34.23;;;1.80;99.90;;;;;;5056066;28;20198;-49
2023/02/14 01:33:40;;;;;;;72.77;32.07;;;1.90;99.90;;;;;;5060000;28;20273;-49
2023/02/14 01:36:14;;;;;;;79.93;34.65;;;1.80;99.90;;;;;;5064407;28;20430;-49
2023/02/14 01:38:41;;;;;;;76.43;38.37;;;1.80;99.90;;;;;;5045909;28;20628;-49
2023/02/14 01:41:08;;;;;;;91.53;36.27;;;1.70;99.90;;;;;;5047202;28;20635;-49
2023/02/14 01:43:53;;;;;;;79.30;32.67;;;1.70;99.90;;;;;;5046197;28;21514;-49
2023/02/14 01:46:20;;;;;;;85.57;34.97;;;1.70;99.90;;;;;;5058227;28;20209;-49
2023/02/14 01:48:48;;;;;;;80.70;35.40;;;1.70;99.90;;;;;;5065672;28;20203;-49
2023/02/14 01:51:17;;;;;;;97.87;33.70;;;1.60;99.90;;;;;;5059739;28;20249;-49
2023/02/14 01:53:44;;;;;;;87.53;36.40;;;1.60;99.90;;;;;;5055022;28;20233;-49
2023/02/14 01:56:17;;;;;;;99.67;35.70;;;1.60;99.90;;;;;;5059172;28;20657;-49
2023/02/14 01:58:47;;;;;;;71.27;32.13;;;1.50;99.90;;;;;;5053536;28;20650;-49
2023/02/14 02:01:17;;;;;;;90.90;34.37;;;1.50;99.90;;;;;;5064606;28;20207;-49
2023/02/14 02:03:49;;;;;;;86.33;34.07;;;1.50;99.90;;;;;;5053705;28;20277;-49
2023/02/14 02:06:22;;;;;;;76.83;33.83;;;1.50;99.90;;;;;;5053405;28;20248;-49
2023/02/14 02:08:59;;;;;;;70.83;34.17;;;1.60;99.90;;;;;;5055234;28;20253;-49
2023/02/14 02:11:26;;;;;;;79.17;33.57;;;1.60;99.90;;;;;;5059425;28;20197;-48
2023/02/14 02:13:53;;;;;;;81.30;34.67;;;1.60;99.90;;;;;;5053360;28;20242;-49
2023/02/14 02:16:38;;;;;;;77.67;36.17;;;1.50;99.90;;;;;;5052332;28;20210;-49
2023/02/14 02:19:24;;;;;;;77.83;35.93;;;1.50;99.90;;;;;;5046714;28;20268;-49
2023/02/14 02:22:25;;;;;;;81.73;34.03;;;1.50;99.90;;;;;;5061000;28;20598;-49
2023/02/14 02:24:58;;;;;;;83.13;32.83;;;1.50;99.90;;;;;;5059172;28;20227;-49
2023/02/14 02:27:44;;;;;;;74.00;35.37;;;1.50;99.90;;;;;;5058574;28;20244;-48
2023/02/14 02:31:05;;;;;;;87.33;35.17;;;1.50;99.90;;;;;;5050021;28;20256;-49
2023/02/14 02:34:02;;;;;;;74.03;34.00;;;1.50;99.90;;;;;;5047701;28;20215;-50
2023/02/14 02:36:56;;;;;;;76.47;33.83;;;1.50;99.90;;;;;;5060291;28;20202;-49
2023/02/14 02:39:34;;;;;;;69.37;32.77;;;1.50;99.90;;;;;;5056798;28;20219;-49
2023/02/14 02:42:10;;;;;;;76.43;35.13;;;1.50;99.90;;;;;;5047470;28;20206;-49
2023/02/14 02:44:45;;;;;;;80.43;34.07;;;1.50;99.90;;;;;;5049361;28;20221;-49
2023/02/14 02:47:22;;;;;;;99.30;37.63;;;1.50;99.90;;;;;;5057149;28;20229;-49
2023/02/14 02:53:02;;;;;;;68.23;33.10;;;1.50;99.90;;;;;;5064253;28;20203;-49
2023/02/14 02:58:22;;;;;;;71.53;34.10;;;1.40;99.90;;;;;;5052882;28;20195;-49
2023/02/14 03:00:51;;;;;;;82.97;35.10;;;1.40;99.90;;;;;;5058525;28;20206;-49
2023/02/14 03:06:06;;;;;;;70.43;32.83;;;1.50;99.90;;;;;;5049438;28;20213;-48
2023/02/14 03:08:35;;;;;;;73.40;33.53;;;1.50;99.90;;;;;;5049776;28;20218;-49
2023/02/14 03:11:04;;;;;;;69.97;31.83;;;1.50;99.90;;;;;;5055603;28;20752;-48
2023/02/14 03:13:43;;;;;;;77.60;34.50;;;1.40;99.90;;;;;;5082358;22;20308;-51
2023/02/14 03:16:27;;;;;;;61.43;30.07;;;1.40;99.90;;;;;;5011392;28;20217;-51
2023/02/14 03:19:21;;;;;;;76.77;32.87;;;1.40;99.90;;;;;;5018881;28;20220;-51
2023/02/14 03:21:54;;;;;;;59.07;30.00;;;1.30;99.90;;;;;;5007756;28;20204;-51
2023/02/14 03:24:28;;;;;;;92.23;34.73;;;1.30;99.90;;;;;;5011027;28;20777;-51
2023/02/14 03:27:03;;;;;;;69.27;31.77;;;1.30;99.90;;;;;;5016912;28;20262;-51
2023/02/14 03:29:40;;;;;;;69.80;32.13;;;1.20;99.90;;;;;;5017646;28;20205;-51
2023/02/14 03:32:14;;;;;;;59.07;31.40;;;1.30;99.90;;;;;;5007266;28;20262;-51
2023/02/14 03:34:48;;;;;;;64.87;30.57;;;1.30;99.90;;;;;;5017904;28;20228;-51
2023/02/14 03:37:20;;;;;;;75.73;32.37;;;1.30;99.90;;;;;;5008679;28;20475;-51
2023/02/14 03:39:55;;;;;;;66.20;29.57;;;1.20;99.90;;;;;;5016925;28;20274;-51
2023/02/14 03:42:25;;;;;;;65.83;30.63;;;1.20;99.90;;;;;;5017882;28;20199;-50
2023/02/14 03:44:55;;;;;;;63.57;30.20;;;1.20;99.90;;;;;;5013791;28;20230;-52
2023/02/14 03:47:25;;;;;;;66.23;31.07;;;1.20;99.90;;;;;;5010470;28;20270;-51
2023/02/14 03:49:56;;;;;;;65.17;30.30;;;1.20;99.90;;;;;;5019052;28;20235;-51
2023/02/14 03:52:24;;;;;;;55.10;28.63;;;1.30;99.90;;;;;;5008488;28;20238;-51
2023/02/14 03:54:56;;;;;;;59.83;29.37;;;1.30;99.90;;;;;;5014062;28;20287;-51
2023/02/14 03:57:27;;;;;;;60.67;30.40;;;1.20;99.90;;;;;;5016688;28;20662;-50
2023/02/14 03:59:55;;;;;;;56.03;29.47;;;1.20;99.90;;;;;;5011744;28;20317;-50
2023/02/14 04:02:29;;;;;;;65.30;30.07;;;1.20;99.90;;;;;;5013837;28;20256;-50
2023/02/14 04:04:58;;;;;;;52.97;26.63;;;1.20;99.90;;;;;;5013355;28;20715;-51
2023/02/14 04:07:25;;;;;;;59.50;29.70;;;1.10;99.90;;;;;;5013702;28;20200;-50
2023/02/14 04:09:54;;;;;;;64.83;29.03;;;1.10;99.90;;;;;;5021705;28;20257;-50
2023/02/14 04:12:21;;;;;;;57.30;27.33;;;1.10;99.90;;;;;;5020569;28;20624;-50
2023/02/14 04:14:48;;;;;;;57.17;29.80;;;1.10;99.90;;;;;;5016168;28;20345;-53
2023/02/14 04:19:59;;;;;;;66.50;30.57;;;1.20;99.90;;;;;;5016013;28;20318;-51
2023/02/14 04:22:26;;;;;;;59.87;29.97;;;1.20;99.90;;;;;;5014125;28;20199;-50
2023/02/14 04:24:55;;;;;;;74.87;30.43;;;1.40;99.90;;;;;;5013969;28;20250;-51
2023/02/14 04:27:21;;;;;;;54.33;26.70;;;1.30;99.90;;;;;;5020586;28;20259;-51
2023/02/14 04:29:51;;;;;;;56.70;27.83;;;1.30;99.90;;;;;;5024735;28;20201;-50
2023/02/14 04:32:20;;;;;;;61.33;28.63;;;1.30;99.90;;;;;;5014949;28;20204;-51
2023/02/14 04:34:48;;;;;;;69.33;31.23;;;1.20;99.90;;;;;;5010364;28;20220;-51
2023/02/14 04:37:16;;;;;;;62.53;27.80;;;1.30;99.90;;;;;;5013082;28;20205;-50
2023/02/14 04:39:43;;;;;;;67.10;27.70;;;1.30;99.90;;;;;;5021169;28;20285;-50
2023/02/14 04:42:12;;;;;;;56.50;27.07;;;1.30;99.90;;;;;;5027213;28;20202;-50
2023/02/14 04:44:39;;;;;;;61.93;29.53;;;1.20;99.90;;;;;;5015809;28;20833;-49
2023/02/14 04:47:06;;;;;;;62.73;27.67;;;1.20;99.90;;;;;;5019214;28;20257;-51
2023/02/14 04:49:34;;;;;;;66.47;29.13;;;1.20;99.90;;;;;;5021347;28;20197;-52
2023/02/14 04:52:01;;;;;;;61.83;25.67;;;1.20;99.90;;;;;;5025852;28;20499;-51
2023/02/14 04:54:29;;;;;;;60.27;28.40;;;1.20;99.90;;;;;;5033472;28;20280;-51
2023/02/14 04:56:56;;;;;;;69.63;28.57;;;1.20;99.90;;;;;;5020661;28;20207;-51
2023/02/14 04:59:24;;;;;;;49.77;25.77;;;1.20;99.90;;;;;;5023242;28;20231;-50
2023/02/14 05:01:53;;;;;;;64.50;27.47;;;1.10;99.90;;;;;;5017846;28;20863;-50
2023/02/14 05:04:21;;;;;;;58.87;28.03;;;1.10;99.90;;;;;;5010541;28;20719;-51
2023/02/14 05:06:47;;;;;;;51.80;25.57;;;1.10;99.90;;;;;;4998576;28;20201;-51
2023/02/14 05:09:15;;;;;;;55.97;25.23;;;1.10;99.90;;;;;;4997266;28;20215;-51
2023/02/14 05:11:42;;;;;;;62.07;25.60;;;1.10;99.90;;;;;;4993895;28;20202;-52
2023/02/14 05:14:09;;;;;;;65.77;28.47;;;1.10;99.90;;;;;;4998207;28;20228;-51
2023/02/14 05:16:38;;;;;;;56.83;26.67;;;1.10;99.90;;;;;;5002643;28;20205;-50
2023/02/14 05:19:05;;;;;;;56.20;27.00;;;1.10;99.90;;;;;;5002412;28;20237;-51
2023/02/14 05:21:32;;;;;;;52.93;27.30;;;1.00;99.90;;;;;;5001938;28;20197;-50
2023/02/14 05:23:59;;;;;;;51.13;24.70;;;1.10;99.90;;;;;;5007489;28;20228;-51
2023/02/14 05:26:26;;;;;;;58.00;27.57;;;1.10;99.90;;;;;;5005221;28;20195;-51
2023/02/14 05:28:53;;;;;;;51.27;27.07;;;1.10;99.90;;;;;;5007802;28;20579;-51
2023/02/14 05:31:20;;;;;;;56.93;25.73;;;1.00;99.90;;;;;;4995509;28;20203;-51
2023/02/14 05:33:48;;;;;;;56.77;26.13;;;1.00;99.90;;;;;;4999590;28;20320;-51
2023/02/14 05:36:15;;;;;;;57.43;26.57;;;1.00;99.90;;;;;;5002662;28;20676;-50
2023/02/14 05:38:42;;;;;;;52.13;24.83;;;1.00;99.90;;;;;;5005045;28;20704;-51
2023/02/14 05:41:09;;;;;;;53.80;28.10;;;1.10;99.90;;;;;;5006068;28;20271;-51
2023/02/14 05:43:36;;;;;;;53.60;26.17;;;1.10;99.90;;;;;;4995878;28;20216;-51
2023/02/14 05:46:03;;;;;;;50.13;26.03;;;1.10;99.90;;;;;;4995330;28;20204;-50
2023/02/14 05:48:30;;;;;;;48.60;22.57;;;1.10;99.90;;;;;;4995966;28;20205;-50
2023/02/14 05:51:03;;;;;;;56.87;25.20;;;1.10;99.90;;;;;;5005820;28;20282;-51
2023/02/14 05:53:31;;;;;;;48.63;25.33;;;1.10;99.90;;;;;;4998359;28;20262;-51
2023/02/14 05:55:58;;;;;;;54.50;26.00;;;1.10;99.90;;;;;;4994071;28;20202;-51
2023/02/14 05:58:24;;;;;;;55.60;27.20;;;1.10;99.90;;;;;;5000444;28;20213;-52
2023/02/14 06:00:51;;;;;;;49.60;27.43;;;1.20;99.90;;;;;;4993259;28;20224;-51
2023/02/14 06:03:18;;;;;;;52.57;27.87;;;1.20;99.90;;;;;;4993028;28;20247;-50
2023/02/14 06:05:45;;;;;;;77.17;27.27;;;1.20;99.90;;;;;;4997248;28;20219;-51
2023/02/14 06:08:14;;;;;;;52.60;27.07;;;1.10;99.90;;;;;;5007336;28;20205;-51
2023/02/14 06:10:40;;;;;;;56.93;24.80;;;1.10;99.90;;;;;;5023672;28;20199;-51
2023/02/14 06:13:07;;;;;;;52.37;25.00;;;1.00;99.90;;;;;;5021351;28;20199;-51
2023/02/14 06:15:35;;;;;;;49.10;25.20;;;1.00;99.90;;;;;;5023650;28;20297;-50
2023/02/14 06:18:02;;;;;;;53.63;26.37;;;1.00;99.90;;;;;;5008246;28;20200;-51
2023/02/14 06:20:29;;;;;;;60.50;25.30;;;1.00;99.90;;;;;;5006551;28;20218;-50
2023/02/14 06:22:56;;;;;;;50.23;22.77;;;1.00;99.90;;;;;;5021654;28;20199;-52
2023/02/14 06:25:25;;;;;;;51.60;27.30;;;1.00;99.90;;;;;;5018211;28;20771;-52
2023/02/14 06:27:56;;;;;;;51.40;26.00;;;1.00;99.90;;;;;;5010755;28;20232;-50
2023/02/14 06:30:27;;;;;;;48.53;23.63;;;1.00;99.90;;;;;;5016964;28;20196;-52
2023/02/14 06:32:55;;;;;;;43.97;23.23;;;1.00;99.90;;;;;;5026220;28;20203;-51
2023/02/14 06:35:22;;;;;;;54.50;26.87;;;1.00;99.90;;;;;;5016045;28;20262;-52
2023/02/14 06:37:49;;;;;;;42.63;23.50;;;0.90;99.90;;;;;;5014208;28;20258;-51
2023/02/14 06:40:18;;;;;;;48.37;23.60;;;0.80;99.90;;;;;;5019943;28;20274;-51
2023/02/14 06:42:46;;;;;;;44.27;23.47;;;0.80;99.90;;;;;;5009785;28;20204;-53
2023/02/14 06:45:13;;;;;;;40.83;22.27;;;0.80;99.90;;;;;;5017346;28;20231;-51
2023/02/14 06:47:40;;;;;;;48.63;24.13;;;0.70;99.90;;;;;;5013041;28;20217;-52
2023/02/14 06:50:10;;;;;;;48.97;25.20;;;0.70;99.90;;;;;;5013074;28;20204;-51
2023/02/14 06:52:38;;;;;;;49.40;24.10;;;0.80;99.90;;;;;;5005200;28;20275;-51
2023/02/14 06:55:05;;;;;;;47.20;23.87;;;0.80;99.90;;;;;;5005086;28;20307;-51
2023/02/14 06:57:36;;;;;;;47.33;24.70;;;0.80;99.90;;;;;;5006774;28;20200;-51
2023/02/14 07:00:06;;;;;;;46.10;23.60;;;0.80;99.90;;;;;;5003371;28;20732;-51
2023/02/14 07:02:35;;;;;;;46.60;24.03;;;0.90;99.90;;;;;;4998649;28;20239;-51
2023/02/14 07:05:02;;;;;;;48.77;23.67;;;0.80;99.90;;;;;;4999744;28;20216;-51
2023/02/14 07:07:29;;;;;;;57.67;24.87;;;0.90;99.90;;;;;;5004342;28;20193;-50
2023/02/14 07:09:56;;;;;;;51.87;24.97;;;0.90;99.90;;;;;;5007522;28;20657;-54
2023/02/14 07:12:22;;;;;;;55.70;24.70;;;0.80;99.90;;;;;;4999762;28;20200;-52
2023/02/14 07:14:49;;;;;;;64.37;27.30;;;0.80;99.90;;;;;;5005618;28;20233;-50
2023/02/14 07:17:18;;;;;;;46.07;24.07;;;0.80;99.90;;;;;;5002988;28;20218;-53
2023/02/14 07:19:45;;;;;;;43.67;22.77;;;0.80;99.90;;;;;;5007804;28;20200;-51
2023/02/14 07:22:12;;;;;;;44.00;23.27;;;0.70;99.90;;;;;;5002834;28;20259;-51
2023/02/14 07:24:38;;;;;;;42.33;23.87;;;0.70;99.90;;;;;;5004405;28;20583;-52
2023/02/14 07:27:05;;;;;;;56.17;25.83;;;0.70;99.90;;;;;;5002931;28;20253;-51
2023/02/14 07:29:33;;;;;;;48.07;23.87;;;0.80;99.90;;;;;;4997108;28;20248;-51
2023/02/14 07:32:00;;;;;;;55.33;25.67;;;0.80;99.90;;;;;;4999793;28;20280;-51
2023/02/14 07:34:28;;;;;;;52.97;24.83;;;0.70;99.90;;;;;;5003018;28;20317;-52
2023/02/14 07:36:55;;;;;;;52.23;23.10;;;0.70;99.90;;;;;;5004249;28;20283;-52
2023/02/14 07:39:22;;;;;;;44.70;22.47;;;0.70;99.90;;;;;;5000465;28;20200;-51
2023/02/14 07:41:49;;;;;;;46.40;22.77;;;0.70;99.90;;;;;;5007747;28;20228;-52
2023/02/14 07:44:16;;;;;;;51.87;25.93;;;0.80;99.90;;;;;;4993552;28;20594;-50
2023/02/14 07:46:43;;;;;;;43.43;21.93;;;0.90;99.90;;;;;;4998532;28;20204;-52
2023/02/14 07:49:10;;;;;;;54.23;23.30;;;0.90;99.90;;;;;;5001649;28;20205;-50
2023/02/14 07:51:39;;;;;;;45.90;22.70;;;1.00;99.90;;;;;;5006385;28;20216;-51
2023/02/14 07:54:06;;;;;;;48.27;23.17;;;1.00;99.90;;;;;;5009014;28;20281;-51
2023/02/14 07:56:33;;;;;;;43.00;22.87;;;1.00;99.90;;;;;;5009959;28;20274;-50
2023/02/14 07:59:00;;;;;;;54.50;23.77;;;1.00;99.90;;;;;;5009945;28;20250;-51
2023/02/14 08:01:27;;;;;;;49.03;24.47;;;0.90;99.90;;;;;;5009588;28;20265;-50
2023/02/14 08:03:54;;;;;;;52.07;25.30;;;0.90;99.90;;;;;;5008712;28;20212;-51
2023/02/14 08:06:22;;;;;;;57.90;24.83;;;0.90;99.90;;;;;;5003042;28;20205;-50
2023/02/14 08:08:50;;;;;;;56.83;29.17;;;0.80;99.90;;;;;;4997001;28;20259;-51
2023/02/14 08:13:58;;;;;;;41.20;21.83;;;0.90;99.90;;;;;;4991416;28;20657;-51
2023/02/14 08:16:25;;;;;;;42.50;22.43;;;1.00;99.90;;;;;;4997211;28;20214;-51
2023/02/14 08:18:52;;;;;;;45.47;21.90;;;1.00;99.90;;;;;;5009165;28;20253;-51
2023/02/14 08:21:19;;;;;;;47.07;22.47;;;1.00;99.90;;;;;;5004302;28;20224;-51
2023/02/14 08:23:46;;;;;;;47.47;23.17;;;1.10;99.90;;;;;;5016457;28;20611;-51
2023/02/14 08:26:16;;;;;;;49.53;23.10;;;1.10;99.90;;;;;;5013476;28;20653;-51
2023/02/14 08:28:43;;;;;;;46.43;23.33;;;1.10;99.90;;;;;;5006700;28;20266;-51
2023/02/14 08:31:10;;;;;;;45.83;22.47;;;1.20;99.90;;;;;;5017538;28;20845;-51
2023/02/14 08:33:37;;;;;;;43.03;21.73;;;1.30;99.90;;;;;;5011189;28;20211;-51
2023/02/14 08:36:05;;;;;;;46.40;22.57;;;1.20;99.90;;;;;;5011452;28;20295;-51
2023/02/14 08:38:32;;;;;;;54.63;25.07;;;1.20;99.90;;;;;;5006806;28;20246;-52
2023/02/14 08:41:02;;;;;;;46.43;24.00;;;1.10;99.90;;;;;;5017796;28;20595;-51
2023/02/14 08:43:30;;;;;;;38.83;21.77;;;1.10;99.90;;;;;;5012515;28;20294;-51
2023/02/14 08:45:57;;;;;;;43.57;21.90;;;1.20;99.90;;;;;;5013217;28;20263;-51
2023/02/14 08:48:25;;;;;;;45.10;22.27;;;1.30;99.90;;;;;;5020439;28;20259;-55
2023/02/14 08:50:52;;;;;;;56.77;25.27;;;1.40;99.90;;;;;;5022681;28;20297;-52
2023/02/14 08:53:20;;;;;;;50.37;22.73;;;1.30;99.90;;;;;;5023932;28;20740;-51
2023/02/14 08:55:47;;;;;;;45.40;21.83;;;1.40;99.90;;;;;;5019958;28;20307;-50
2023/02/14 08:58:15;;;;;;;47.40;22.40;;;1.40;99.90;;;;;;5012670;28;20677;-52
2023/02/14 09:00:43;;;;;;;51.97;23.40;;;1.40;99.90;;;;;;5019109;28;20806;-51
2023/02/14 09:03:10;;;;;;;43.23;23.63;;;1.40;99.90;;;;;;5011578;28;20206;-50
2023/02/14 09:05:37;;;;;;;39.60;21.60;;;1.50;99.90;;;;;;5016528;28;20714;-50
2023/02/14 09:08:04;;;;;;;44.90;24.00;;;1.60;99.90;;;;;;5012440;28;20208;-51
2023/02/14 09:10:31;;;;;;;39.40;20.50;;;1.60;99.90;;;;;;4996922;28;20251;-51
2023/02/14 09:12:58;;;;;;;44.77;22.13;;;1.50;99.90;;;;;;5011302;28;20197;-49
2023/02/14 09:15:25;;;;;;;42.33;22.90;;;1.50;99.90;;;;;;5069971;22;20229;-47
2023/02/14 09:17:54;;;;;;;39.57;21.27;;;1.50;99.90;;;;;;5053532;28;20685;-47
2023/02/14 09:20:21;;;;;;;38.03;20.83;;;1.50;99.90;;;;;;5053231;28;20208;-48
2023/02/14 09:22:48;;;;;;;38.97;22.10;;;1.60;99.90;;;;;;5039988;28;20208;-48
2023/02/14 09:25:15;;;;;;;41.23;21.93;;;1.60;99.90;;;;;;5052123;28;20227;-47
2023/02/14 09:27:43;;;;;;;37.10;19.93;;;1.70;99.90;;;;;;5062627;28;20202;-48
2023/02/14 09:30:11;;;;;;;37.67;20.93;;;1.70;99.90;;;;;;5062957;28;20260;-47
2023/02/14 09:32:38;;;;;;;42.57;24.20;;;1.80;99.90;;;;;;5052909;28;20205;-47
2023/02/14 09:35:07;;;;;;;43.90;24.33;;;1.80;99.90;;;;;;5053056;28;20732;-47
2023/02/14 09:37:35;;;;;;;43.30;24.20;;;1.90;99.90;;;;;;5053273;28;20234;-48
2023/02/14 09:40:03;;;;;;;45.70;24.80;;;1.90;99.90;;;;;;5050440;28;20258;-48
2023/02/14 09:42:46;;;;;;;39.13;21.73;;;1.90;99.90;;;;;;5051337;28;20221;-49
2023/02/14 09:45:15;;;;;;;36.70;20.80;;;1.90;99.90;;;;;;5033183;28;20310;-49
2023/02/14 09:47:46;;;;;;;33.70;20.27;;;2.00;99.90;;;;;;5047835;28;20623;-48
2023/02/14 09:50:20;;;;;;;46.63;23.17;;;2.10;99.90;;;;;;5053051;28;20572;-48
2023/02/14 09:52:51;;;;;;;42.60;21.60;;;2.10;99.90;;;;;;5052559;28;20203;-48
2023/02/14 09:55:18;;;;;;;40.07;20.50;;;2.00;99.90;;;;;;5057822;28;20268;-46
2023/02/14 09:57:58;;;;;;;37.77;21.57;;;1.90;99.90;;;;;;5054182;28;20214;-47
2023/02/14 10:00:34;;;;;;;41.90;22.47;;;2.00;99.90;;;;;;5052852;28;20206;-48
2023/02/14 10:03:21;;;;;;;46.23;22.73;;;2.00;99.90;;;;;;5052376;28;20563;-47
2023/02/14 10:05:58;;;;;;;40.00;21.00;;;2.10;99.90;;;;;;5052467;28;20222;-47
2023/02/14 10:08:38;;;;;;;43.50;21.33;;;2.20;99.90;;;;;;5052139;28;20208;-49
2023/02/14 10:11:08;;;;;;;40.67;20.07;;;2.20;99.90;;;;;;5053678;28;20195;-48
2023/02/14 10:13:40;;;;;;;43.80;23.20;;;2.30;99.90;;;;;;5052373;28;20218;-49
2023/02/14 10:16:13;;;;;;;41.70;23.77;;;2.40;99.90;;;;;;5052307;28;20214;-48
2023/02/14 10:18:45;;;;;;;42.10;22.57;;;2.50;99.90;;;;;;5052795;28;20210;-47
2023/02/14 10:21:22;;;;;;;45.23;25.87;;;2.50;99.90;;;;;;5050894;28;20217;-48
2023/02/14 10:23:52;;;;;;;44.07;21.93;;;2.60;99.90;;;;;;5058484;28;20203;-47
2023/02/14 10:26:26;;;;;;;34.80;21.13;;;2.60;99.90;;;;;;5060552;28;20252;-48
2023/02/14 10:28:54;;;;;;;44.13;24.30;;;2.60;99.90;;;;;;5051784;28;20203;-48
2023/02/14 10:31:23;;;;;;;37.70;20.93;;;2.60;99.90;;;;;;5050800;28;20293;-48
2023/02/14 10:33:54;;;;;;;51.20;31.43;;;2.50;99.90;;;;;;5062436;28;20254;-48
2023/02/14 10:36:36;;;;;;;39.63;21.97;;;2.70;99.90;;;;;;5072102;28;20301;-47
2023/02/14 10:39:15;;;;;;;41.70;23.67;;;2.80;99.90;;;;;;5065061;28;20206;-47
2023/02/14 10:41:50;;;;;;;45.40;20.77;;;2.90;99.90;;;;;;5053382;28;20265;-47
2023/02/14 10:44:30;;;;;;;40.73;22.83;;;3.00;99.90;;;;;;5063466;28;20267;-48
2023/02/14 10:47:04;;;;;;;40.00;24.07;;;3.10;99.90;;;;;;5072002;28;20679;-47
2023/02/14 10:49:42;;;;;;;40.03;22.20;;;3.10;99.90;;;;;;5071886;28;20244;-48
2023/02/14 10:52:21;;;;;;;44.90;24.43;;;3.00;99.90;;;;;;5062911;28;20388;-48
2023/02/14 10:54:54;;;;;;;46.30;23.97;;;3.00;99.90;;;;;;5050055;28;20260;-48
2023/02/14 10:57:27;;;;;;;47.50;23.47;;;2.90;99.90;;;;;;5054215;28;20228;-47
2023/02/14 10:59:58;;;;;;;37.57;19.77;;;3.00;99.90;;;;;;5055745;28;20210;-48
2023/02/14 11:02:34;;;;;;;41.03;21.03;;;3.00;99.90;;;;;;5062866;28;20218;-47
2023/02/14 11:05:03;;;;;;;44.87;24.33;;;3.20;99.90;;;;;;5048605;28;20218;-47
2023/02/14 11:07:35;;;;;;;40.77;22.27;;;3.10;99.90;;;;;;5052431;28;20203;-48
2023/02/14 11:10:02;;;;;;;42.17;22.03;;;3.30;99.90;;;;;;5053643;28;20209;-48
2023/02/14 11:12:37;;;;;;;38.20;22.27;;;3.30;99.90;;;;;;5057662;28;20906;-47
2023/02/14 11:15:21;;;;;;;50.60;22.93;;;3.40;99.90;;;;;;5054259;28;20749;-48
2023/02/14 11:17:49;;;;;;;45.77;25.13;;;3.40;99.90;;;;;;5052158;28;20206;-47
2023/02/14 11:20:30;;;;;;;43.20;24.27;;;3.50;99.90;;;;;;5055893;28;20687;-49
2023/02/14 11:22:58;;;;;;;49.70;25.87;;;3.50;99.90;;;;;;5050722;28;20249;-47
2023/02/14 11:25:27;;;;;;;49.40;23.47;;;3.50;99.90;;;;;;5050623;28;20226;-47
2023/02/14 11:27:59;;;;;;;51.67;22.50;;;3.50;99.90;;;;;;5052505;28;20745;-47
2023/02/14 11:30:31;;;;;;;43.80;22.77;;;3.30;99.90;;;;;;5045332;28;20204;-47
2023/02/14 11:32:58;;;;;;;45.77;25.23;;;3.50;99.90;;;;;;5044273;28;20568;-47
2023/02/14 11:35:33;;;;;;;54.57;25.93;;;3.60;99.90;;;;;;5047531;28;20632;-49
2023/02/14 11:38:03;;;;;;;47.03;24.20;;;3.70;99.90;;;;;;5030471;28;20195;-48
2023/02/14 11:40:33;;;;;;;48.07;23.43;;;3.70;99.90;;;;;;5030571;28;20262;-47
2023/02/14 11:43:17;;;;;;;45.23;23.20;;;3.80;99.90;;;;;;5030310;28;20216;-47
2023/02/14 11:45:46;;;;;;;43.97;24.60;;;3.90;99.90;;;;;;5038015;28;20720;-48
2023/02/14 11:48:19;;;;;;;50.63;27.92;;;4.00;99.90;;;;;;5044137;28;20943;-47
2023/02/14 11:50:57;;;;;;;48.57;21.60;;;4.20;99.90;;;;;;5030594;28;20203;-47
2023/02/14 11:53:27;;;;;;;53.93;26.97;;;4.10;99.90;;;;;;5048731;28;20757;-47
2023/02/14 11:55:56;;;;;;;44.83;22.90;;;4.10;99.90;;;;;;5048770;28;20277;-49
2023/02/14 11:58:33;;;;;;;52.80;24.83;;;4.30;99.90;;;;;;5048664;28;20245;-47
2023/02/14 12:01:01;;;;;;;48.90;23.20;;;4.40;99.90;;;;;;5046390;28;20596;-47
2023/02/14 12:03:32;;;;;;;55.53;23.93;;;4.10;99.90;;;;;;5044670;28;20215;-48
2023/02/14 12:06:01;;;;;;;55.03;22.87;;;4.00;99.90;;;;;;5041502;28;20276;-46
2023/02/14 12:08:31;;;;;;;47.80;22.90;;;4.20;99.90;;;;;;5046569;28;20200;-48
2023/02/14 12:11:03;;;;;;;44.70;23.17;;;4.10;99.90;;;;;;5050670;28;20231;-48
2023/02/14 12:13:30;;;;;;;46.20;22.83;;;3.90;99.90;;;;;;5034863;28;20283;-47
2023/02/14 12:15:59;;;;;;;51.43;23.93;;;4.00;99.90;;;;;;5039314;28;20229;-47
2023/02/14 12:18:51;;;;;;;44.40;21.67;;;4.10;99.90;;;;;;5039484;28;20199;-49
2023/02/14 12:21:31;;;;;;;42.97;22.33;;;4.10;99.90;;;;;;5041267;28;20237;-47
2023/02/14 12:24:06;;;;;;;45.83;24.77;;;4.30;99.90;;;;;;5050141;28;20261;-48
2023/02/14 12:26:36;;;;;;;44.40;22.63;;;4.50;99.90;;;;;;5047709;28;20211;-48
2023/02/14 12:29:12;;;;;;;47.50;21.77;;;4.50;99.90;;;;;;5037440;28;20273;-50
2023/02/14 12:31:40;;;;;;;51.27;24.10;;;4.60;99.90;;;;;;5046164;28;20405;-48
2023/02/14 12:34:10;;;;;;;47.37;22.70;;;4.40;99.90;;;;;;5034343;28;20706;-49
2023/02/14 12:37:11;;;;;;;53.30;24.57;;;4.40;99.90;;;;;;5040064;28;20206;-47
2023/02/14 12:39:59;;;;;;;50.83;23.03;;;4.60;99.90;;;;;;5052809;28;20696;-47
2023/02/14 12:42:42;;;;;;;45.77;20.97;;;4.50;99.90;;;;;;5052908;28;20270;-48
2023/02/14 12:45:17;;;;;;;49.40;21.47;;;4.60;99.90;;;;;;5053602;28;20283;-47
2023/02/14 12:47:52;;;;;;;44.77;21.47;;;4.50;99.90;;;;;;5046221;28;20260;-48
2023/02/14 12:50:34;;;;;;;44.30;22.77;;;4.40;99.90;;;;;;5052870;28;20205;-47
2023/02/14 12:53:24;;;;;;;41.70;21.50;;;4.40;99.90;;;;;;5045010;28;20196;-48
2023/02/14 12:56:05;;;;;;;49.90;22.70;;;4.40;99.90;;;;;;5035316;28;20733;-48
2023/02/14 12:58:41;;;;;;;52.07;23.73;;;4.40;99.90;;;;;;5038674;28;20683;-47
2023/02/14 13:01:27;;;;;;;59.43;25.07;;;4.50;99.90;;;;;;5043755;28;20194;-48
2023/02/14 13:04:24;;;;;;;48.67;23.13;;;4.40;99.90;;;;;;5049661;28;20188;-48
2023/02/14 13:06:57;;;;;;;51.93;22.23;;;4.50;99.90;;;;;;5052581;28;20257;-47
2023/02/14 13:09:34;;;;;;;45.80;23.60;;;4.50;99.90;;;;;;5048473;28;20582;-48
2023/02/14 13:12:15;;;;;;;43.77;21.80;;;4.70;99.90;;;;;;5037803;28;20847;-47